createdAt,value
2023-03-14T00:01:50.796Z,3.08
2023-03-14T00:04:18.027Z,2.85
2023-03-14T00:06:45.400Z,1.93
2023-03-14T00:09:12.636Z,2.50
2023-03-14T00:11:39.901Z,3.58
2023-03-14T00:14:07.112Z,2.83
2023-03-14T00:16:34.347Z,1.92
2023-03-14T00:19:01.581Z,3.35
2023-03-14T00:21:28.852Z,3.00
2023-03-14T00:23:56.190Z,2.15
2023-03-14T00:26:23.504Z,5.25
2023-03-14T00:28:54.130Z,3.53
2023-03-14T00:31:21.444Z,3.58
2023-03-14T00:33:48.741Z,3.00
2023-03-14T00:36:17.445Z,3.35
2023-03-14T00:38:45.275Z,3.90
2023-03-14T00:41:14.030Z,3.67
2023-03-14T00:43:41.285Z,2.08
2023-03-14T00:46:08.784Z,2.40
2023-03-14T00:48:36.059Z,3.10
2023-03-14T00:51:04.047Z,1.75
2023-03-14T00:53:31.246Z,4.45
2023-03-14T00:55:58.553Z,2.80
2023-03-14T00:58:25.756Z,2.85
2023-03-14T01:00:53.022Z,2.30
2023-03-14T01:03:20.238Z,2.40
2023-03-14T01:05:47.463Z,2.85
2023-03-14T01:08:14.717Z,4.53
2023-03-14T01:10:42.308Z,2.55
2023-03-14T01:13:09.905Z,3.17
2023-03-14T01:15:37.510Z,4.97
2023-03-14T01:18:04.907Z,2.15
2023-03-14T01:20:32.188Z,2.90
2023-03-14T01:22:59.471Z,2.70
2023-03-14T01:25:27.195Z,4.50
2023-03-14T01:27:54.410Z,3.00
2023-03-14T01:30:21.744Z,4.13
2023-03-14T01:32:49.009Z,2.03
2023-03-14T01:35:16.334Z,4.15
2023-03-14T01:37:43.587Z,5.15
2023-03-14T01:40:15.289Z,3.83
2023-03-14T01:42:46.419Z,3.63
2023-03-14T01:45:39.756Z,2.58
2023-03-14T01:48:07.045Z,3.90
2023-03-14T01:50:34.288Z,3.45
2023-03-14T01:53:01.606Z,3.20
2023-03-14T01:55:28.834Z,4.18
2023-03-14T01:57:57.781Z,3.73
2023-03-14T02:00:25.238Z,3.13
2023-03-14T02:02:53.349Z,4.97
2023-03-14T02:05:24.848Z,3.97
2023-03-14T02:07:53.380Z,4.10
2023-03-14T02:10:21.849Z,2.25
2023-03-14T02:12:49.181Z,4.43
2023-03-14T02:15:16.486Z,4.80
2023-03-14T02:17:43.934Z,3.10
2023-03-14T02:20:17.934Z,4.32
2023-03-14T02:22:46.222Z,2.80
2023-03-14T02:25:16.514Z,4.75
2023-03-14T02:27:43.896Z,3.25
2023-03-14T02:30:15.587Z,5.30
2023-03-14T02:32:43.393Z,6.70
2023-03-14T02:35:12.255Z,3.70
2023-03-14T02:38:00.184Z,3.42
2023-03-14T02:40:27.392Z,3.80
2023-03-14T02:42:54.604Z,4.20
2023-03-14T02:45:21.888Z,4.78
2023-03-14T02:47:56.490Z,3.08
2023-03-14T02:50:24.538Z,4.07
2023-03-14T02:52:51.877Z,5.47
2023-03-14T02:55:25.660Z,4.28
2023-03-14T02:57:52.894Z,4.05
2023-03-14T03:00:20.534Z,2.78
2023-03-14T03:02:47.773Z,4.07
2023-03-14T03:05:15.028Z,3.03
2023-03-14T03:07:42.335Z,5.20
2023-03-14T03:10:10.046Z,5.25
2023-03-14T03:12:37.352Z,3.17
2023-03-14T03:15:04.792Z,4.60
2023-03-14T03:17:32.070Z,4.55
2023-03-14T03:19:59.389Z,4.50
2023-03-14T03:22:26.613Z,3.67
2023-03-14T03:24:53.834Z,5.80
2023-03-14T03:27:21.084Z,4.07
2023-03-14T03:29:48.637Z,2.95
2023-03-14T03:32:15.858Z,4.18
2023-03-14T03:34:43.082Z,2.55
2023-03-14T03:37:10.397Z,2.75
2023-03-14T03:39:37.635Z,2.88
2023-03-14T03:42:04.949Z,4.30
2023-03-14T03:44:32.192Z,4.32
2023-03-14T03:46:59.400Z,6.10
2023-03-14T03:49:30.100Z,4.82
2023-03-14T03:51:57.345Z,4.47
2023-03-14T03:54:24.608Z,2.78
2023-03-14T03:56:51.921Z,4.07
2023-03-14T03:59:19.329Z,4.72
2023-03-14T04:01:46.619Z,3.92
2023-03-14T04:04:14.011Z,5.28
2023-03-14T04:06:42.902Z,3.80
2023-03-14T04:09:10.833Z,4.20
2023-03-14T04:11:38.198Z,4.95
2023-03-14T04:14:05.715Z,3.55
2023-03-14T04:16:33.027Z,4.57
2023-03-14T04:19:00.334Z,3.50
2023-03-14T04:21:27.573Z,3.88
2023-03-14T04:23:54.823Z,3.63
2023-03-14T04:26:22.055Z,3.45
2023-03-14T04:28:49.305Z,5.55
2023-03-14T04:31:17.784Z,4.05
2023-03-14T04:33:46.097Z,4.95
2023-03-14T04:36:13.462Z,3.42
2023-03-14T04:38:40.771Z,3.15
2023-03-14T04:41:08.110Z,2.67
2023-03-14T04:43:35.395Z,3.63
2023-03-14T04:46:02.650Z,4.30
2023-03-14T04:48:30.279Z,4.13
2023-03-14T04:50:57.658Z,4.80
2023-03-14T04:53:24.949Z,5.18
2023-03-14T04:55:55.811Z,5.53
2023-03-14T04:58:23.119Z,2.80
2023-03-14T05:00:50.369Z,2.78
2023-03-14T05:03:17.996Z,4.70
2023-03-14T05:05:45.275Z,4.07
2023-03-14T05:08:12.522Z,5.15
2023-03-14T05:10:39.789Z,3.13
2023-03-14T05:13:07.012Z,3.00
2023-03-14T05:15:34.272Z,3.30
2023-03-14T05:18:02.178Z,3.05
2023-03-14T05:20:29.445Z,4.18
2023-03-14T05:22:56.664Z,4.25
2023-03-14T05:25:23.899Z,3.15
2023-03-14T05:27:51.112Z,5.07
2023-03-14T05:30:18.336Z,2.97
2023-03-14T05:32:45.657Z,2.80
2023-03-14T05:35:12.960Z,3.35
2023-03-14T05:37:40.222Z,3.57
2023-03-14T05:40:07.890Z,3.38
2023-03-14T05:42:35.140Z,4.00
2023-03-14T05:45:02.376Z,3.60
2023-03-14T05:47:29.592Z,3.53
2023-03-14T05:49:56.809Z,2.22
2023-03-14T05:52:24.104Z,2.47
2023-03-14T05:54:51.349Z,3.88
2023-03-14T05:57:18.648Z,3.10
2023-03-14T05:59:46.006Z,2.63
2023-03-14T06:02:13.347Z,4.47
2023-03-14T06:04:40.690Z,4.55
2023-03-14T06:07:07.956Z,1.77
2023-03-14T06:09:37.285Z,4.85
2023-03-14T06:12:05.162Z,6.25
2023-03-14T06:14:32.421Z,5.07
2023-03-14T06:17:02.732Z,2.95
2023-03-14T06:19:30.005Z,4.10
2023-03-14T06:21:57.224Z,2.83
2023-03-14T06:24:24.479Z,4.75
2023-03-14T06:26:51.701Z,4.78
2023-03-14T06:29:18.910Z,3.70
2023-03-14T06:31:46.132Z,4.25
2023-03-14T06:34:13.335Z,3.92
2023-03-14T06:36:40.608Z,3.20
2023-03-14T06:39:07.852Z,3.00
2023-03-14T06:41:35.087Z,3.87
2023-03-14T06:44:02.334Z,2.85
2023-03-14T06:46:29.655Z,4.35
2023-03-14T06:48:57.008Z,3.15
2023-03-14T06:51:24.256Z,5.00
2023-03-14T06:53:51.532Z,3.78
2023-03-14T06:56:18.810Z,5.20
2023-03-14T06:58:47.692Z,3.00
2023-03-14T07:01:19.468Z,5.22
2023-03-14T07:03:46.753Z,2.90
2023-03-14T07:06:14.011Z,4.20
2023-03-14T07:08:42.878Z,3.58
2023-03-14T07:11:11.960Z,3.57
2023-03-14T07:13:39.693Z,3.30
2023-03-14T07:16:07.259Z,3.20
2023-03-14T07:18:34.584Z,5.22
2023-03-14T07:21:01.826Z,4.17
2023-03-14T07:23:29.082Z,3.42
2023-03-14T07:25:56.340Z,3.03
2023-03-14T07:28:24.143Z,2.03
2023-03-14T07:30:51.392Z,3.28
2023-03-14T07:33:18.760Z,3.70
2023-03-14T07:35:46.049Z,3.15
2023-03-14T07:38:13.313Z,2.63
2023-03-14T07:40:40.555Z,3.53
2023-03-14T07:43:07.908Z,4.20
2023-03-14T07:45:42.560Z,2.53
2023-03-14T07:48:10.877Z,3.65
2023-03-14T07:50:38.210Z,3.57
2023-03-14T07:53:05.451Z,3.35
2023-03-14T07:55:32.673Z,3.55
2023-03-14T07:58:00.991Z,2.40
2023-03-14T08:00:28.440Z,2.67
2023-03-14T08:02:55.683Z,3.80
2023-03-14T08:05:22.953Z,5.20
2023-03-14T08:07:50.163Z,2.25
2023-03-14T08:10:23.612Z,3.63
2023-03-14T08:12:57.634Z,2.22
2023-03-14T08:15:25.348Z,3.05
2023-03-14T08:17:53.630Z,4.63
2023-03-14T08:20:21.138Z,2.75
2023-03-14T08:22:48.337Z,3.75
2023-03-14T08:25:15.609Z,3.37
2023-03-14T08:27:42.967Z,3.92
2023-03-14T08:30:11.620Z,2.92
2023-03-14T08:32:39.055Z,2.83
2023-03-14T08:35:06.625Z,2.95
2023-03-14T08:37:34.268Z,4.20
2023-03-14T08:40:01.530Z,2.00
2023-03-14T08:42:28.767Z,3.00
2023-03-14T08:44:55.986Z,2.13
2023-03-14T08:47:23.235Z,3.83
2023-03-14T08:49:50.522Z,1.23
2023-03-14T08:52:17.798Z,3.28
2023-03-14T08:54:45.415Z,3.75
2023-03-14T08:57:12.748Z,3.87
2023-03-14T08:59:40.113Z,2.80
2023-03-14T09:02:07.591Z,2.78
2023-03-14T09:04:34.904Z,2.05
2023-03-14T09:07:02.484Z,2.38
2023-03-14T09:09:29.702Z,2.63
2023-03-14T09:11:56.932Z,3.38
2023-03-14T09:14:24.359Z,3.70
2023-03-14T09:16:52.040Z,2.58
2023-03-14T09:19:19.308Z,1.77
2023-03-14T09:21:46.692Z,2.42
2023-03-14T09:24:14.003Z,1.77
2023-03-14T09:26:41.407Z,4.15
2023-03-14T09:29:08.823Z,3.45
2023-03-14T09:31:36.470Z,2.87
2023-03-14T09:34:03.835Z,2.75
2023-03-14T09:36:31.131Z,2.88
2023-03-14T09:38:58.635Z,3.30
2023-03-14T09:41:27.242Z,2.75
2023-03-14T09:43:58.459Z,3.50
2023-03-14T09:46:25.746Z,5.18
2023-03-14T09:48:53.271Z,2.63
2023-03-14T09:51:21.323Z,3.53
2023-03-14T09:53:49.760Z,2.33
2023-03-14T09:56:26.528Z,3.03
2023-03-14T09:58:55.710Z,3.60
2023-03-14T10:01:24.984Z,3.90
2023-03-14T10:03:52.364Z,3.50
2023-03-14T10:06:20.159Z,5.38
2023-03-14T10:08:47.463Z,4.53
2023-03-14T10:11:18.351Z,3.53
2023-03-14T10:14:13.810Z,3.53
2023-03-14T10:16:47.351Z,2.33
2023-03-14T10:19:15.599Z,2.83
2023-03-14T10:21:43.486Z,3.40
2023-03-14T10:24:23.021Z,3.83
2023-03-14T10:27:10.554Z,3.67
2023-03-14T10:29:37.804Z,2.60
2023-03-14T10:32:06.034Z,2.05
2023-03-14T10:34:34.497Z,2.45
2023-03-14T10:37:22.877Z,3.53
2023-03-14T10:39:50.319Z,4.30
2023-03-14T10:42:34.893Z,5.63
2023-03-14T10:45:03.261Z,4.50
2023-03-14T10:47:30.582Z,5.63
2023-03-14T10:49:58.649Z,4.07
2023-03-14T10:52:31.130Z,4.88
2023-03-14T10:55:11.540Z,3.10
2023-03-14T10:57:42.379Z,1.90
2023-03-14T11:00:20.020Z,3.03
2023-03-14T11:02:50.307Z,2.92
2023-03-14T11:05:21.190Z,3.28
2023-03-14T11:07:48.530Z,3.60
2023-03-14T11:10:20.803Z,5.43
2023-03-14T11:13:08.045Z,2.75
2023-03-14T11:15:53.787Z,4.33
2023-03-14T11:18:24.099Z,3.85
2023-03-14T11:20:55.603Z,5.57
2023-03-14T11:23:23.399Z,3.90
2023-03-14T11:25:50.753Z,3.42
2023-03-14T11:28:18.048Z,3.67
2023-03-14T11:30:54.884Z,3.20
2023-03-14T11:33:29.726Z,4.50
2023-03-14T11:36:00.094Z,2.67
2023-03-14T11:38:40.488Z,2.55
2023-03-14T11:41:11.403Z,3.72
2023-03-14T11:43:42.408Z,3.50
2023-03-14T11:46:11.717Z,4.30
2023-03-14T11:48:39.069Z,3.78
2023-03-14T11:51:07.710Z,2.22
2023-03-14T11:53:49.996Z,5.07
2023-03-14T11:56:23.383Z,3.40
2023-03-14T11:58:56.317Z,0.32
2023-03-14T12:01:23.608Z,1.42
2023-03-14T12:04:26.676Z,2.10
2023-03-14T12:06:53.926Z,1.60
2023-03-14T12:09:21.950Z,2.35
2023-03-14T12:11:53.834Z,2.63
2023-03-14T12:14:25.766Z,2.42
2023-03-14T12:17:16.461Z,2.25
2023-03-14T12:19:43.713Z,1.98
2023-03-14T16:52:04.488Z,7.68
2023-03-14T16:54:32.113Z,13.85
2023-03-14T16:56:59.428Z,18.17
2023-03-14T16:59:28.903Z,12.23
2023-03-14T17:01:56.867Z,13.20
2023-03-14T17:04:24.637Z,11.60
2023-03-14T17:06:52.637Z,6.97
2023-03-14T17:09:19.931Z,13.27
2023-03-14T17:11:47.246Z,17.30
2023-03-14T17:14:14.495Z,14.68
2023-03-14T17:16:42.055Z,20.27
2023-03-14T17:19:09.339Z,14.38
2023-03-14T17:21:36.577Z,16.88
2023-03-14T17:24:03.890Z,11.75
2023-03-14T17:26:31.263Z,14.35
2023-03-14T17:28:58.515Z,8.63
2023-03-14T17:31:26.303Z,7.45
2023-03-14T17:33:55.077Z,18.17
2023-03-14T17:36:30.077Z,35.40
2023-03-14T17:38:58.618Z,13.23
2023-03-14T17:41:25.989Z,19.10
2023-03-14T17:43:53.212Z,23.10
2023-03-14T17:46:20.506Z,51.17
2023-03-14T17:48:48.437Z,29.52
2023-03-14T17:51:15.865Z,7.35
2023-03-14T17:53:43.141Z,8.30
2023-03-14T17:56:11.766Z,6.40
2023-03-14T17:58:39.145Z,8.15
2023-03-14T18:01:10.213Z,8.00
2023-03-14T18:03:37.536Z,12.52
2023-03-14T18:06:05.781Z,7.53
2023-03-14T18:08:33.027Z,8.68
2023-03-14T18:11:00.314Z,8.57
2023-03-14T18:13:27.606Z,9.68
2023-03-14T18:15:54.933Z,5.85
2023-03-14T18:18:22.207Z,10.55
2023-03-14T18:20:50.734Z,11.05
2023-03-14T18:23:17.977Z,8.18
2023-03-14T18:25:45.174Z,6.40
2023-03-14T18:28:12.419Z,6.83
2023-03-14T18:30:39.650Z,5.53
2023-03-14T18:33:06.973Z,11.30
2023-03-14T18:35:34.293Z,5.85
2023-03-14T18:38:01.489Z,11.18
2023-03-14T18:40:28.701Z,6.80
2023-03-14T18:42:56.478Z,10.17
2023-03-14T18:45:23.710Z,5.57
2023-03-14T18:47:50.943Z,9.48
2023-03-14T18:50:18.346Z,11.35
2023-03-14T18:52:45.685Z,8.38
2023-03-14T18:55:13.066Z,11.52
2023-03-14T18:57:40.798Z,9.02
2023-03-14T19:00:10.246Z,5.82
2023-03-14T19:02:37.477Z,7.05
2023-03-14T19:05:04.828Z,6.75
2023-03-14T19:07:34.097Z,10.45
2023-03-14T19:10:01.506Z,9.75
2023-03-14T19:12:29.558Z,8.55
2023-03-14T19:14:56.800Z,9.98
2023-03-14T19:17:24.013Z,6.47
2023-03-14T19:19:52.781Z,8.27
2023-03-14T19:22:19.982Z,8.00
2023-03-14T19:24:47.179Z,7.78
2023-03-14T19:27:14.551Z,5.72
2023-03-14T19:29:42.912Z,11.13
2023-03-14T19:32:10.645Z,13.60
2023-03-14T19:34:37.958Z,10.07
2023-03-14T19:37:05.201Z,11.13
2023-03-14T19:39:32.499Z,11.07
2023-03-14T19:41:59.694Z,14.20
2023-03-14T19:44:27.133Z,8.15
2023-03-14T19:46:54.486Z,10.52
2023-03-14T19:49:21.896Z,8.88
2023-03-14T19:51:49.702Z,6.65
2023-03-14T19:54:17.064Z,13.07
2023-03-14T19:56:44.347Z,15.43
2023-03-14T19:59:11.550Z,9.40
2023-03-14T20:01:39.115Z,6.38
2023-03-14T20:04:06.381Z,9.52
2023-03-14T20:06:34.467Z,7.07
2023-03-14T20:09:02.866Z,5.47
2023-03-14T20:11:30.137Z,7.32
2023-03-14T20:13:57.332Z,9.23
2023-03-14T20:16:25.135Z,7.80
2023-03-14T20:18:52.420Z,9.20
2023-03-14T20:21:19.642Z,9.10
2023-03-14T20:23:46.856Z,15.60
2023-03-14T20:26:14.142Z,11.63
2023-03-14T20:28:42.739Z,13.25
2023-03-14T20:31:10.263Z,17.48
2023-03-14T20:33:37.572Z,6.88
2023-03-14T20:36:05.080Z,7.35
2023-03-14T20:38:32.610Z,10.93
2023-03-14T20:40:59.950Z,10.15
2023-03-14T20:43:27.369Z,6.63
2023-03-14T20:45:55.150Z,6.77
2023-03-14T20:48:22.448Z,8.75
2023-03-14T20:50:49.741Z,9.90
2023-03-14T20:53:17.295Z,9.98
2023-03-14T20:55:45.077Z,8.93
2023-03-14T20:58:13.124Z,8.30
2023-03-14T21:00:40.925Z,11.35
2023-03-14T21:03:08.263Z,6.57
2023-03-14T21:05:35.527Z,9.27
2023-03-14T21:08:02.836Z,8.70
2023-03-14T21:10:30.082Z,9.23
2023-03-14T21:12:57.275Z,7.97
2023-03-14T21:15:24.511Z,7.17
2023-03-14T21:17:53.710Z,6.53
2023-03-14T21:20:21.142Z,13.13
2023-03-14T21:22:48.402Z,7.03
2023-03-14T21:25:15.694Z,7.55
2023-03-14T21:27:42.978Z,8.95
2023-03-14T21:30:11.160Z,10.77
2023-03-14T21:32:38.517Z,13.20
2023-03-14T21:35:06.039Z,9.32
2023-03-14T21:37:33.310Z,11.45
2023-03-14T21:40:00.786Z,10.90
2023-03-14T21:42:28.114Z,9.02
2023-03-14T21:44:55.348Z,11.73
2023-03-14T21:47:23.732Z,11.93
2023-03-14T21:49:51.767Z,9.25
2023-03-14T21:52:19.074Z,8.60
2023-03-14T21:54:46.455Z,5.57
2023-03-14T21:57:14.500Z,5.93
2023-03-14T21:59:41.955Z,7.00
2023-03-14T22:02:12.115Z,8.93
2023-03-14T22:04:40.127Z,6.70
2023-03-14T22:07:08.294Z,6.22
2023-03-14T22:09:35.920Z,7.50
2023-03-14T22:12:04.276Z,10.48
2023-03-14T22:14:31.511Z,11.43
2023-03-14T22:17:03.979Z,6.35
2023-03-14T22:19:34.658Z,10.30
2023-03-14T22:22:01.912Z,6.57
2023-03-14T22:24:29.161Z,7.83
2023-03-14T22:26:56.470Z,5.03
2023-03-14T22:29:23.908Z,7.85
2023-03-14T22:31:51.287Z,6.60
2023-03-14T22:34:18.638Z,5.78
2023-03-14T22:36:45.878Z,7.07
2023-03-14T22:39:13.172Z,7.13
2023-03-14T22:41:40.376Z,9.80
2023-03-14T22:44:07.619Z,7.28
2023-03-14T22:46:34.882Z,8.13
2023-03-14T22:49:02.246Z,7.18
2023-03-14T22:51:29.498Z,8.00
2023-03-14T22:53:56.756Z,7.80
2023-03-14T22:56:24.001Z,11.10
2023-03-14T22:58:51.280Z,8.73
2023-03-14T23:01:18.670Z,7.28
2023-03-14T23:03:45.884Z,8.83
2023-03-14T23:06:13.143Z,6.90
2023-03-14T23:08:41.679Z,9.33
2023-03-14T23:11:08.982Z,11.55
2023-03-14T23:13:36.287Z,7.80
2023-03-14T23:16:03.552Z,10.10
2023-03-14T23:18:30.771Z,7.72
2023-03-14T23:21:08.081Z,5.68
2023-03-14T23:23:35.345Z,6.60
2023-03-14T23:26:05.828Z,8.00
2023-03-14T23:28:33.114Z,5.20
2023-03-14T23:31:00.392Z,7.87
2023-03-14T23:33:27.930Z,9.93
2023-03-14T23:35:55.287Z,7.10
2023-03-14T23:38:25.823Z,12.60
2023-03-14T23:40:53.569Z,11.35
2023-03-14T23:43:20.924Z,6.13
2023-03-14T23:45:53.298Z,5.88
2023-03-14T23:48:21.116Z,6.28
2023-03-14T23:50:48.411Z,10.60
2023-03-14T23:53:15.628Z,6.78
2023-03-14T23:55:42.862Z,8.07
2023-03-14T23:58:10.290Z,5.30
